createdAt,value
2018-08-17T00:00:54.341Z,79.16
2018-08-17T00:03:24.258Z,79.06
2018-08-17T00:05:53.352Z,79.94
2018-08-17T00:08:22.705Z,79.49
2018-08-17T00:10:51.934Z,80.10
2018-08-17T00:13:21.289Z,80.44
2018-08-17T00:15:50.828Z,81.06
2018-08-17T00:18:20.079Z,81.46
2018-08-17T00:20:49.208Z,80.10
2018-08-17T00:23:18.296Z,80.70
2018-08-17T00:25:47.396Z,80.04
2018-08-17T00:28:16.388Z,80.24
2018-08-17T00:30:45.401Z,80.66
2018-08-17T00:33:14.227Z,80.68
2018-08-17T00:35:43.217Z,81.44
2018-08-17T00:38:12.336Z,82.02
2018-08-17T00:40:41.512Z,81.65
2018-08-17T00:43:10.506Z,81.91
2018-08-17T00:45:39.496Z,82.64
2018-08-17T00:48:09.129Z,82.34
2018-08-17T00:50:38.253Z,82.88
2018-08-17T00:53:07.553Z,82.94
2018-08-17T00:55:36.769Z,83.02
2018-08-17T00:58:05.847Z,83.45
2018-08-17T01:00:35.129Z,84.23
2018-08-17T01:03:04.245Z,82.79
2018-08-17T01:05:33.237Z,82.95
2018-08-17T01:08:01.885Z,83.15
2018-08-17T01:10:30.915Z,82.69
2018-08-17T01:13:00.079Z,82.94
2018-08-17T01:15:29.059Z,82.19
2018-08-17T01:17:58.100Z,82.08
2018-08-17T01:20:27.298Z,82.79
2018-08-17T01:22:56.589Z,82.94
2018-08-17T01:25:25.969Z,82.71
2018-08-17T01:27:55.275Z,83.92
2018-08-17T01:30:25.185Z,83.69
2018-08-17T01:32:54.621Z,84.25
2018-08-17T01:35:24.844Z,84.72
2018-08-17T01:37:54.148Z,84.10
2018-08-17T01:40:23.548Z,84.61
2018-08-17T01:42:52.898Z,83.86
2018-08-17T01:45:22.633Z,83.93
2018-08-17T01:47:51.861Z,84.08
2018-08-17T01:50:21.161Z,82.63
2018-08-17T01:52:50.357Z,82.71
2018-08-17T01:55:19.664Z,82.13
2018-08-17T01:57:48.804Z,82.74
2018-08-17T02:00:18.078Z,82.66
2018-08-17T02:02:46.905Z,84.28
2018-08-17T02:05:16.141Z,84.11
2018-08-17T02:07:45.442Z,84.69
2018-08-17T02:10:14.742Z,84.10
2018-08-17T02:12:44.147Z,84.04
2018-08-17T02:15:13.651Z,83.60
2018-08-17T02:17:43.004Z,83.25
2018-08-17T02:20:12.353Z,83.18
2018-08-17T02:22:41.764Z,82.90
2018-08-17T02:25:11.266Z,82.83
2018-08-17T02:27:40.564Z,82.21
2018-08-17T02:30:09.965Z,82.07
2018-08-17T02:32:39.233Z,81.77
2018-08-17T02:35:08.464Z,82.28
2018-08-17T02:37:37.714Z,82.03
2018-08-17T02:40:06.859Z,82.04
2018-08-17T02:42:35.377Z,82.27
2018-08-17T02:45:03.922Z,81.78
2018-08-17T02:47:32.488Z,82.62
2018-08-17T02:50:00.902Z,82.84
2018-08-17T02:52:29.329Z,83.25
2018-08-17T02:54:57.770Z,83.44
2018-08-17T02:57:26.190Z,84.16
2018-08-17T02:59:54.763Z,84.15
2018-08-17T03:02:23.658Z,85.43
2018-08-17T03:04:52.221Z,85.09
2018-08-17T03:07:20.696Z,86.09
2018-08-17T03:09:49.165Z,86.42
2018-08-17T03:12:17.666Z,86.12
2018-08-17T03:14:46.145Z,86.65
2018-08-17T03:17:14.770Z,85.95
2018-08-17T03:19:43.206Z,86.02
2018-08-17T03:22:11.824Z,85.35
2018-08-17T03:24:40.281Z,85.23
2018-08-17T03:27:08.773Z,84.84
2018-08-17T03:29:37.432Z,85.14
2018-08-17T03:32:06.097Z,85.32
2018-08-17T03:34:34.618Z,85.38
2018-08-17T03:37:03.196Z,84.90
2018-08-17T03:39:31.705Z,85.40
2018-08-17T03:42:00.146Z,85.40
2018-08-17T03:44:29.054Z,85.42
2018-08-17T03:46:57.509Z,85.25
2018-08-17T03:49:26.201Z,85.30
2018-08-17T03:51:54.733Z,85.45
2018-08-17T03:54:23.610Z,85.51
2018-08-17T03:56:52.332Z,86.07
2018-08-17T03:59:20.763Z,86.15
2018-08-17T04:01:49.273Z,87.29
2018-08-17T04:04:17.725Z,87.80
2018-08-17T04:06:46.196Z,87.50
2018-08-17T04:09:14.684Z,87.87
2018-08-17T04:11:43.207Z,87.47
2018-08-17T04:14:11.646Z,87.55
2018-08-17T04:16:40.030Z,87.09
2018-08-17T04:19:08.645Z,88.04
2018-08-17T04:21:37.176Z,87.82
2018-08-17T04:24:05.690Z,88.17
2018-08-17T04:26:34.201Z,88.61
2018-08-17T04:29:02.662Z,89.10
2018-08-17T04:31:31.249Z,89.82
2018-08-17T04:33:59.672Z,89.46
2018-08-17T04:36:28.162Z,89.11
2018-08-17T04:38:56.662Z,89.33
2018-08-17T04:41:25.458Z,89.69
2018-08-17T04:43:53.942Z,89.87
2018-08-17T04:46:22.651Z,88.89
2018-08-17T04:48:51.113Z,89.24
2018-08-17T04:51:19.714Z,88.87
2018-08-17T04:53:48.126Z,88.39
2018-08-17T04:56:16.598Z,88.57
2018-08-17T04:58:44.982Z,88.34
2018-08-17T05:01:13.574Z,87.97
2018-08-17T05:03:41.974Z,87.31
2018-08-17T05:06:10.541Z,86.67
2018-08-17T05:08:38.978Z,86.89
2018-08-17T05:11:07.671Z,86.32
2018-08-17T05:13:36.121Z,86.20
2018-08-17T05:16:04.653Z,86.69
2018-08-17T05:18:33.068Z,86.60
2018-08-17T05:21:01.573Z,84.77
2018-08-17T05:23:30.115Z,84.94
2018-08-17T05:25:58.590Z,84.66
2018-08-17T05:28:26.989Z,84.70
2018-08-17T05:30:55.502Z,84.30
2018-08-17T05:33:24.670Z,84.34
2018-08-17T05:35:53.238Z,84.04
2018-08-17T05:38:21.843Z,83.78
2018-08-17T05:40:50.377Z,83.72
2018-08-17T05:43:19.118Z,83.46
2018-08-17T05:45:47.654Z,83.10
2018-08-17T05:48:16.271Z,83.96
2018-08-17T05:50:44.805Z,82.69
2018-08-17T05:53:13.238Z,83.22
2018-08-17T05:55:41.837Z,81.14
2018-08-17T05:58:10.333Z,80.84
2018-08-17T06:00:38.900Z,81.10
2018-08-17T06:03:07.413Z,79.88
2018-08-17T06:05:35.919Z,80.03
2018-08-17T06:08:04.382Z,79.60
2018-08-17T06:10:32.838Z,78.57
2018-08-17T06:13:01.482Z,78.04
2018-08-17T06:15:30.010Z,77.27
2018-08-17T06:17:58.497Z,77.18
2018-08-17T06:20:27.014Z,76.48
2018-08-17T06:22:55.442Z,76.57
2018-08-17T06:25:24.192Z,76.24
2018-08-17T06:27:52.657Z,75.80
2018-08-17T06:30:21.165Z,75.28
2018-08-17T06:32:49.924Z,74.63
2018-08-17T06:35:19.539Z,74.57
2018-08-17T06:37:48.178Z,74.29
2018-08-17T06:40:16.736Z,73.82
2018-08-17T06:42:45.234Z,73.76
2018-08-17T06:45:13.943Z,74.15
2018-08-17T06:47:42.446Z,73.74
2018-08-17T06:50:11.877Z,73.35
2018-08-17T06:52:41.302Z,72.50
2018-08-17T06:55:10.986Z,71.92
2018-08-17T06:57:39.925Z,70.79
2018-08-17T07:00:14.227Z,71.00
2018-08-17T07:02:43.722Z,70.06
2018-08-17T07:05:12.234Z,70.03
2018-08-17T07:07:41.119Z,70.30
2018-08-17T07:10:13.885Z,67.79
2018-08-17T07:12:43.006Z,65.43
2018-08-17T07:15:11.669Z,65.88
2018-08-17T07:17:40.693Z,65.67
2018-08-17T07:20:10.888Z,65.13
2018-08-17T07:22:39.517Z,63.84
2018-08-17T07:25:08.361Z,63.51
2018-08-17T07:27:36.872Z,63.97
2018-08-17T07:30:07.124Z,62.78
2018-08-17T07:32:35.653Z,62.21
2018-08-17T07:35:04.418Z,62.04
2018-08-17T07:37:32.837Z,61.57
2018-08-17T07:40:01.310Z,61.41
2018-08-17T07:42:29.949Z,60.40
2018-08-17T07:44:58.386Z,60.95
2018-08-17T07:47:26.948Z,59.81
2018-08-17T07:49:55.448Z,59.65
2018-08-17T07:52:24.272Z,58.96
2018-08-17T07:54:52.892Z,58.37
2018-08-17T07:57:21.352Z,58.69
2018-08-17T07:59:49.774Z,57.80
2018-08-17T08:02:18.217Z,57.72
2018-08-17T08:04:46.746Z,56.55
2018-08-17T08:07:15.237Z,56.58
2018-08-17T08:09:43.693Z,56.51
2018-08-17T08:12:12.265Z,56.38
2018-08-17T08:14:40.758Z,56.32
2018-08-17T08:17:09.146Z,56.00
2018-08-17T08:19:37.557Z,55.68
2018-08-17T08:22:06.094Z,55.87
2018-08-17T08:24:38.798Z,55.62
2018-08-17T08:27:08.077Z,54.94
2018-08-17T08:29:36.489Z,54.51
2018-08-17T08:32:05.037Z,55.10
2018-08-17T08:34:33.449Z,54.16
2018-08-17T08:37:01.930Z,53.51
2018-08-17T08:39:30.471Z,53.97
2018-08-17T08:41:58.910Z,53.16
2018-08-17T08:44:27.527Z,52.52
2018-08-17T08:46:55.943Z,52.53
2018-08-17T08:49:24.579Z,52.43
2018-08-17T08:51:53.019Z,51.47
2018-08-17T08:54:21.518Z,51.39
2018-08-17T08:56:49.997Z,52.25
2018-08-17T08:59:18.466Z,51.53
2018-08-17T09:01:46.892Z,51.43
2018-08-17T09:04:15.338Z,51.55
2018-08-17T09:06:43.812Z,50.98
2018-08-17T09:09:12.334Z,50.85
2018-08-17T09:11:40.746Z,49.93
2018-08-17T09:14:09.283Z,49.49
2018-08-17T09:16:37.874Z,49.85
2018-08-17T09:19:06.635Z,50.02
2018-08-17T09:21:35.134Z,48.75
2018-08-17T09:24:03.646Z,48.13
2018-08-17T09:26:32.145Z,46.98
2018-08-17T09:29:00.550Z,46.57
2018-08-17T09:31:29.022Z,46.63
2018-08-17T09:33:57.552Z,46.11
2018-08-17T09:36:26.005Z,45.02
2018-08-17T09:38:54.505Z,45.48
2018-08-17T09:41:22.995Z,45.00
2018-08-17T09:43:51.449Z,44.99
2018-08-17T09:46:19.919Z,44.61
2018-08-17T09:48:48.505Z,42.18
2018-08-17T09:51:17.007Z,40.58
2018-08-17T09:53:45.458Z,39.05
2018-08-17T09:56:14.390Z,37.77
2018-08-17T09:58:42.841Z,36.01
2018-08-17T10:01:16.753Z,34.71
2018-08-17T10:03:49.561Z,34.72
2018-08-17T10:06:23.502Z,33.40
2018-08-17T10:08:57.261Z,32.28
2018-08-17T10:11:26.790Z,32.04
2018-08-17T10:13:55.238Z,31.43
2018-08-17T10:16:24.000Z,30.85
2018-08-17T10:18:52.397Z,30.90
2018-08-17T10:21:21.158Z,31.34
2018-08-17T10:23:49.512Z,29.70
2018-08-17T10:26:18.116Z,28.14
2018-08-17T10:28:46.681Z,29.83
2018-08-17T10:31:18.613Z,28.10
2018-08-17T10:33:48.484Z,28.81
2018-08-17T10:36:16.994Z,27.61
2018-08-17T10:38:45.449Z,27.88
2018-08-17T10:41:13.970Z,27.61
2018-08-17T10:43:42.409Z,26.48
2018-08-17T10:46:10.911Z,25.95
2018-08-17T10:48:39.360Z,26.32
2018-08-17T10:51:07.880Z,25.54
2018-08-17T10:53:40.882Z,26.53
2018-08-17T10:56:09.354Z,26.53
2018-08-17T10:58:41.449Z,26.05
2018-08-17T11:01:09.901Z,26.29
2018-08-17T11:03:38.378Z,25.84
2018-08-17T11:06:06.889Z,24.00
2018-08-17T11:08:35.275Z,22.91
2018-08-17T11:11:03.819Z,23.14
2018-08-17T11:13:32.271Z,22.81
2018-08-17T11:16:00.773Z,20.39
2018-08-17T11:18:29.246Z,21.82
2018-08-17T11:20:57.777Z,23.80
2018-08-17T11:23:26.286Z,23.25
2018-08-17T11:25:54.714Z,22.47
2018-08-17T11:28:23.505Z,22.28
2018-08-17T11:30:51.994Z,24.73
2018-08-17T11:33:27.253Z,27.76
2018-08-17T11:35:56.119Z,28.54
2018-08-17T11:38:25.133Z,29.56
2018-08-17T11:40:53.621Z,30.06
2018-08-17T11:43:22.274Z,29.06
2018-08-17T11:45:50.838Z,29.26
2018-08-17T11:48:26.545Z,28.41
2018-08-17T11:50:55.910Z,28.93
2018-08-17T11:53:25.688Z,28.05
2018-08-17T11:55:54.307Z,25.58
2018-08-17T11:58:22.861Z,21.53
2018-08-17T12:00:51.369Z,20.28
2018-08-17T12:03:19.802Z,19.79
2018-08-17T12:05:48.252Z,21.37
2018-08-17T12:08:16.800Z,23.82
2018-08-17T12:10:50.424Z,26.60
2018-08-17T12:13:19.093Z,27.46
2018-08-17T12:15:53.467Z,27.65
2018-08-17T12:18:21.984Z,26.74
2018-08-17T12:20:50.509Z,26.97
2018-08-17T12:23:18.984Z,24.68
2018-08-17T12:25:55.140Z,25.68
2018-08-17T12:28:24.621Z,25.97
2018-08-17T12:30:53.126Z,26.46
2018-08-17T12:33:21.630Z,27.38
2018-08-17T12:35:50.058Z,28.70
2018-08-17T12:38:19.573Z,30.34
2018-08-17T12:40:49.270Z,31.65
2018-08-17T12:43:18.894Z,34.41
2018-08-17T12:45:47.691Z,34.42
2018-08-17T12:48:17.014Z,35.47
2018-08-17T12:50:45.870Z,36.09
2018-08-17T12:53:14.674Z,36.26
2018-08-17T12:55:43.641Z,35.71
2018-08-17T12:58:12.651Z,35.73
2018-08-17T13:00:41.162Z,35.52
2018-08-17T13:03:09.637Z,35.41
2018-08-17T13:05:38.278Z,36.23
2018-08-17T13:08:07.599Z,34.79
2018-08-17T13:10:36.226Z,32.96
2018-08-17T13:13:09.721Z,32.36
2018-08-17T13:15:39.313Z,34.38
2018-08-17T13:18:15.145Z,35.60
2018-08-17T13:20:44.130Z,35.74
2018-08-17T13:23:12.915Z,35.01
2018-08-17T13:25:41.921Z,34.61
2018-08-17T13:28:11.845Z,35.71
2018-08-17T13:30:40.403Z,37.10
2018-08-17T13:33:08.985Z,36.19
2018-08-17T13:35:37.490Z,34.94
2018-08-17T13:38:06.296Z,34.05
2018-08-17T13:40:34.916Z,32.84
2018-08-17T13:43:03.511Z,31.42
2018-08-17T13:45:31.921Z,30.96
2018-08-17T13:48:00.758Z,29.84
2018-08-17T13:50:29.151Z,30.32
2018-08-17T13:52:57.601Z,29.62
2018-08-17T13:55:26.513Z,29.82
2018-08-17T13:57:55.129Z,28.85
2018-08-17T14:00:24.115Z,29.31
2018-08-17T14:02:52.530Z,32.04
2018-08-17T14:05:21.053Z,34.33
2018-08-17T14:07:49.585Z,35.45
2018-08-17T14:10:18.109Z,36.53
2018-08-17T14:12:46.573Z,37.73
2018-08-17T14:15:15.093Z,38.04
2018-08-17T14:17:43.514Z,39.00
2018-08-17T14:20:14.491Z,39.78
2018-08-17T14:22:43.536Z,40.46
2018-08-17T14:25:12.551Z,40.69
2018-08-17T14:27:41.065Z,40.48
2018-08-17T14:30:12.484Z,42.60
2018-08-17T14:32:41.250Z,43.91
2018-08-17T14:35:09.826Z,44.16
2018-08-17T14:37:38.224Z,43.67
2018-08-17T14:40:07.322Z,44.21
2018-08-17T14:42:35.794Z,44.55
2018-08-17T14:45:05.089Z,46.48
2018-08-17T14:47:33.621Z,47.17
2018-08-17T14:50:02.165Z,47.86
2018-08-17T14:52:30.613Z,48.47
2018-08-17T14:54:59.041Z,48.67
2018-08-17T14:57:27.591Z,48.03
2018-08-17T14:59:56.090Z,47.73
2018-08-17T15:02:25.130Z,48.14
2018-08-17T15:04:53.605Z,47.27
2018-08-17T15:07:22.077Z,47.55
2018-08-17T15:09:50.608Z,47.79
2018-08-17T15:12:19.146Z,47.24
2018-08-17T15:14:47.610Z,47.42
2018-08-17T15:17:16.130Z,48.59
2018-08-17T15:19:44.563Z,51.18
2018-08-17T15:22:13.186Z,55.07
2018-08-17T15:24:41.636Z,54.71
2018-08-17T15:27:10.425Z,59.50
2018-08-17T15:29:38.929Z,56.73
2018-08-17T15:32:07.808Z,52.65
2018-08-17T15:34:36.301Z,52.41
2018-08-17T15:37:04.946Z,52.70
2018-08-17T15:39:33.469Z,52.24
2018-08-17T15:42:02.180Z,51.99
2018-08-17T15:44:30.681Z,54.17
2018-08-17T15:46:59.789Z,54.80
2018-08-17T15:49:34.718Z,56.04
2018-08-17T15:52:04.555Z,56.50
2018-08-17T15:54:33.063Z,57.03
2018-08-17T15:57:01.944Z,57.13
2018-08-17T15:59:30.562Z,56.34
2018-08-17T16:01:59.135Z,56.10
2018-08-17T16:04:27.810Z,56.05
2018-08-17T16:06:56.446Z,54.83
2018-08-17T16:09:25.475Z,54.11
2018-08-17T16:11:54.034Z,54.12
2018-08-17T16:14:22.838Z,55.51
2018-08-17T16:16:51.481Z,54.67
2018-08-17T16:19:20.441Z,53.23
2018-08-17T16:21:49.345Z,51.08
2018-08-17T16:24:17.909Z,50.03
2018-08-17T16:26:46.365Z,48.08
2018-08-17T16:29:14.994Z,44.90
2018-08-17T16:31:43.529Z,39.68
2018-08-17T16:34:12.121Z,35.85
2018-08-17T16:36:42.165Z,34.86
2018-08-17T16:39:16.309Z,35.07
2018-08-17T16:41:44.941Z,34.56
2018-08-17T16:44:14.681Z,32.18
2018-08-17T16:46:44.131Z,32.52
2018-08-17T16:49:12.765Z,32.64
2018-08-17T16:51:41.257Z,33.12
2018-08-17T16:54:09.858Z,32.77
2018-08-17T16:56:38.290Z,34.62
2018-08-17T16:59:07.306Z,37.04
2018-08-17T17:01:35.729Z,39.29
2018-08-17T17:04:04.285Z,42.90
2018-08-17T17:06:33.076Z,45.85
2018-08-17T17:09:04.733Z,47.29
2018-08-17T17:11:33.442Z,48.01
2018-08-17T17:14:01.967Z,49.82
2018-08-17T17:16:36.741Z,51.33
2018-08-17T17:19:06.859Z,52.31
2018-08-17T17:21:35.377Z,52.56
2018-08-17T17:24:04.038Z,53.47
2018-08-17T17:26:32.476Z,54.31
2018-08-17T17:29:01.062Z,55.46
2018-08-17T17:31:29.658Z,55.47
2018-08-17T17:33:58.281Z,56.27
2018-08-17T17:36:26.697Z,57.94
2018-08-17T17:38:55.187Z,57.86
2018-08-17T17:41:24.403Z,59.03
2018-08-17T17:43:52.883Z,59.16
2018-08-17T17:46:21.443Z,59.60
2018-08-17T17:48:51.112Z,60.24
2018-08-17T17:51:19.538Z,60.78
2018-08-17T17:53:48.075Z,61.23
2018-08-17T17:56:16.641Z,60.71
2018-08-17T17:58:45.110Z,61.30
2018-08-17T18:01:13.579Z,61.84
2018-08-17T18:03:45.533Z,60.74
2018-08-17T18:06:14.009Z,61.55
2018-08-17T18:08:42.565Z,62.71
2018-08-17T18:11:11.106Z,63.64
2018-08-17T18:13:39.586Z,64.28
2018-08-17T18:16:08.058Z,63.39
2018-08-17T18:18:36.561Z,62.25
2018-08-17T18:21:05.106Z,61.63
2018-08-17T18:23:33.517Z,60.23
2018-08-17T18:26:02.005Z,60.95
2018-08-17T18:28:30.620Z,62.13
2018-08-17T18:30:59.150Z,62.29
2018-08-17T18:33:27.565Z,62.93
2018-08-17T18:35:55.988Z,63.55
2018-08-17T18:38:25.578Z,64.12
2018-08-17T18:40:54.181Z,64.70
2018-08-17T18:43:22.680Z,65.08
2018-08-17T18:45:51.242Z,66.05
2018-08-17T18:48:19.746Z,66.55
2018-08-17T18:50:48.271Z,67.45
2018-08-17T18:53:16.821Z,67.74
2018-08-17T18:55:45.453Z,68.57
2018-08-17T18:58:13.993Z,69.09
2018-08-17T19:00:42.446Z,70.21
2018-08-17T19:03:11.089Z,70.86
2018-08-17T19:05:39.522Z,71.77
2018-08-17T19:08:07.954Z,72.50
2018-08-17T19:10:36.578Z,73.87
2018-08-17T19:13:05.305Z,73.78
2018-08-17T19:15:40.322Z,75.32
2018-08-17T19:18:08.694Z,76.84
2018-08-17T19:20:37.250Z,78.55
2018-08-17T19:23:05.893Z,79.24
2018-08-17T19:25:39.442Z,79.62
2018-08-17T19:28:07.946Z,78.87
2018-08-17T19:30:36.530Z,77.35
2018-08-17T19:33:08.584Z,75.42
2018-08-17T19:35:37.101Z,76.52
2018-08-17T19:38:05.706Z,78.59
2018-08-17T19:40:34.145Z,77.65
2018-08-17T19:43:02.673Z,77.19
2018-08-17T19:45:31.205Z,76.62
2018-08-17T19:47:59.711Z,76.02
2018-08-17T19:50:28.559Z,77.11
2018-08-17T19:52:56.977Z,78.16
2018-08-17T19:55:25.978Z,78.30
2018-08-17T19:57:54.398Z,78.84
2018-08-17T20:00:23.278Z,79.09
2018-08-17T20:02:51.770Z,79.50
2018-08-17T20:05:20.274Z,80.00
2018-08-17T20:07:48.933Z,79.91
2018-08-17T20:10:17.343Z,80.40
2018-08-17T20:12:46.131Z,81.89
2018-08-17T20:15:14.621Z,82.41
2018-08-17T20:17:50.742Z,83.10
2018-08-17T20:20:19.653Z,83.76
2018-08-17T20:22:48.230Z,84.89
2018-08-17T20:25:17.689Z,87.03
2018-08-17T20:27:47.254Z,88.27
2018-08-17T20:30:19.814Z,89.03
2018-08-17T20:32:48.241Z,90.29
2018-08-17T20:35:16.908Z,92.59
2018-08-17T20:37:50.881Z,94.92
2018-08-17T20:40:19.619Z,95.88
2018-08-17T20:42:48.512Z,97.51
2018-08-17T20:45:17.077Z,97.42
2018-08-17T20:47:45.730Z,97.83
2018-08-17T20:50:18.715Z,98.21
2018-08-17T20:52:56.358Z,97.75
2018-08-17T20:55:25.445Z,98.14
2018-08-17T20:57:55.014Z,98.06
2018-08-17T21:00:25.462Z,98.36
2018-08-17T21:02:54.314Z,99.08
2018-08-17T21:05:23.417Z,98.75
2018-08-17T21:07:52.125Z,98.72
2018-08-17T21:10:20.781Z,97.32
2018-08-17T21:12:49.702Z,96.63
2018-08-17T21:15:18.782Z,95.46
2018-08-17T21:17:47.607Z,94.56
2018-08-17T21:20:16.246Z,93.31
2018-08-17T21:22:44.732Z,91.23
2018-08-17T21:25:14.033Z,90.38
2018-08-17T21:27:42.497Z,87.87
2018-08-17T21:30:11.523Z,88.38
2018-08-17T21:32:40.050Z,88.70
2018-08-17T21:35:08.962Z,87.85
2018-08-17T21:37:38.825Z,85.87
2018-08-17T21:40:18.573Z,85.17
2018-08-17T21:42:48.077Z,85.59
2018-08-17T21:45:16.585Z,84.53
2018-08-17T21:47:45.111Z,83.99
2018-08-17T21:50:14.564Z,84.91
2018-08-17T21:52:43.750Z,85.03
2018-08-17T21:55:12.519Z,85.58
2018-08-17T21:57:41.223Z,86.47
2018-08-17T22:00:30.506Z,87.24
2018-08-17T22:02:59.281Z,88.66
2018-08-17T22:05:34.285Z,89.56
2018-08-17T22:08:02.894Z,90.40
2018-08-17T22:10:31.802Z,90.68
2018-08-17T22:13:00.403Z,90.68
2018-08-17T22:15:30.533Z,91.39
2018-08-17T22:17:58.970Z,91.97
2018-08-17T22:20:27.513Z,92.10
2018-08-17T22:22:56.119Z,91.50
2018-08-17T22:25:24.872Z,91.67
2018-08-17T22:27:53.433Z,91.44
2018-08-17T22:30:23.881Z,91.34
2018-08-17T22:32:52.305Z,91.35
2018-08-17T22:35:20.917Z,91.59
2018-08-17T22:37:49.409Z,91.47
2018-08-17T22:40:17.894Z,92.71
2018-08-17T22:42:48.316Z,93.62
2018-08-17T22:45:17.105Z,93.63
2018-08-17T22:47:45.869Z,94.55
2018-08-17T22:50:15.160Z,94.56
2018-08-17T22:52:43.819Z,94.99
2018-08-17T22:55:12.270Z,95.30
2018-08-17T22:57:41.722Z,95.85
2018-08-17T23:00:42.898Z,96.14
2018-08-17T23:03:11.420Z,96.87
2018-08-17T23:05:39.853Z,98.54
2018-08-17T23:08:08.521Z,98.82
2018-08-17T23:10:36.950Z,99.50
2018-08-17T23:13:05.481Z,99.55
2018-08-17T23:15:33.881Z,99.74
2018-08-17T23:18:02.545Z,99.78
2018-08-17T23:20:33.725Z,99.75
2018-08-17T23:23:03.016Z,99.88
2018-08-17T23:25:31.880Z,100.00
2018-08-17T23:28:01.549Z,100.00
2018-08-17T23:30:31.985Z,100.00
2018-08-17T23:33:01.013Z,100.00
2018-08-17T23:35:29.632Z,100.00
2018-08-17T23:37:58.233Z,100.00
2018-08-17T23:40:26.762Z,100.00
2018-08-17T23:42:55.239Z,100.00
2018-08-17T23:45:24.586Z,100.00
2018-08-17T23:47:53.033Z,100.00
2018-08-17T23:50:21.592Z,100.00
2018-08-17T23:52:50.009Z,100.00
2018-08-17T23:55:19.317Z,100.00
2018-08-17T23:57:47.806Z,100.00
